<?xml version="1.0" encoding="UTF-8" standalone="no" ?>
<gpx xmlns="http://www.topografix.com/GPX/1/1" xmlns:xsi="http://www.w3.org/2001/XMLSchema-instance" xsi:schemaLocation="http://www.topografix.com/GPX/1/1 http://www.topografix.com/GPX/1/1/gpx.xsd" version="1.1" creator="VisuGPX - https://www.visugpx.com">
  <metadata>
    <name>14116549-BOIS DE ROCHEFORT 22</name>
  </metadata>
  <trk>
    <name><![CDATA[14116549-BOIS DE ROCHEFORT 22]]></name>
    <trkseg>
      <trkpt lat="48.59154" lon="1.96598">
        <ele>120</ele>
        <time>2022-01-12T09:45:03Z</time>
      </trkpt>
      <trkpt lat="48.5922" lon="1.96558">
        <ele>124</ele>
        <time>2022-01-12T09:46:00Z</time>
      </trkpt>
      <trkpt lat="48.59267" lon="1.96488">
        <ele>128</ele>
        <time>2022-01-12T09:46:53Z</time>
      </trkpt>
      <trkpt lat="48.59321" lon="1.96464">
        <ele>132</ele>
        <time>2022-01-12T09:47:38Z</time>
      </trkpt>
      <trkpt lat="48.59441" lon="1.96616">
        <ele>145</ele>
        <time>2022-01-12T09:49:43Z</time>
      </trkpt>
      <trkpt lat="48.59401" lon="1.96695">
        <ele>143</ele>
        <time>2022-01-12T09:50:36Z</time>
      </trkpt>
      <trkpt lat="48.59419" lon="1.96774">
        <ele>148</ele>
        <time>2022-01-12T09:51:20Z</time>
      </trkpt>
      <trkpt lat="48.59451" lon="1.96834">
        <ele>152</ele>
        <time>2022-01-12T09:52:01Z</time>
      </trkpt>
      <trkpt lat="48.59403" lon="1.96895">
        <ele>154</ele>
        <time>2022-01-12T09:52:51Z</time>
      </trkpt>
      <trkpt lat="48.59427" lon="1.96974">
        <ele>157</ele>
        <time>2022-01-12T09:53:37Z</time>
      </trkpt>
      <trkpt lat="48.59443" lon="1.97165">
        <ele>156</ele>
        <time>2022-01-12T09:55:19Z</time>
      </trkpt>
      <trkpt lat="48.59421" lon="1.97241">
        <ele>153</ele>
        <time>2022-01-12T09:56:03Z</time>
      </trkpt>
      <trkpt lat="48.59461" lon="1.97311">
        <ele>146</ele>
        <time>2022-01-12T09:56:52Z</time>
      </trkpt>
      <trkpt lat="48.59477" lon="1.97429">
        <ele>141</ele>
        <time>2022-01-12T09:57:56Z</time>
      </trkpt>
      <trkpt lat="48.5973" lon="1.96898">
        <ele>146</ele>
        <time>2022-01-12T10:03:42Z</time>
      </trkpt>
      <trkpt lat="48.59885" lon="1.96573">
        <ele>156</ele>
        <time>2022-01-12T10:07:15Z</time>
      </trkpt>
      <trkpt lat="48.59592" lon="1.96297">
        <ele>154</ele>
        <time>2022-01-12T10:11:51Z</time>
      </trkpt>
      <trkpt lat="48.59869" lon="1.95663">
        <ele>127</ele>
        <time>2022-01-12T10:18:33Z</time>
      </trkpt>
      <trkpt lat="48.59997" lon="1.95684">
        <ele>126</ele>
        <time>2022-01-12T10:20:16Z</time>
      </trkpt>
      <trkpt lat="48.60107" lon="1.95897">
        <ele>125</ele>
        <time>2022-01-12T10:22:40Z</time>
      </trkpt>
      <trkpt lat="48.60228" lon="1.95887">
        <ele>121</ele>
        <time>2022-01-12T10:24:17Z</time>
      </trkpt>
      <trkpt lat="48.60366" lon="1.95605">
        <ele>118</ele>
        <time>2022-01-12T10:27:22Z</time>
      </trkpt>
      <trkpt lat="48.60583" lon="1.95183">
        <ele>120</ele>
        <time>2022-01-12T10:32:05Z</time>
      </trkpt>
      <trkpt lat="48.60591" lon="1.95496">
        <ele>120</ele>
        <time>2022-01-12T10:34:51Z</time>
      </trkpt>
      <trkpt lat="48.60645" lon="1.95645">
        <ele>118</ele>
        <time>2022-01-12T10:36:21Z</time>
      </trkpt>
      <trkpt lat="48.60699" lon="1.9573">
        <ele>116</ele>
        <time>2022-01-12T10:37:24Z</time>
      </trkpt>
      <trkpt lat="48.60703" lon="1.9583">
        <ele>113</ele>
        <time>2022-01-12T10:38:17Z</time>
      </trkpt>
      <trkpt lat="48.60671" lon="1.9593">
        <ele>116</ele>
        <time>2022-01-12T10:39:15Z</time>
      </trkpt>
      <trkpt lat="48.60713" lon="1.96009">
        <ele>118</ele>
        <time>2022-01-12T10:40:09Z</time>
      </trkpt>
      <trkpt lat="48.60715" lon="1.96073">
        <ele>119</ele>
        <time>2022-01-12T10:40:43Z</time>
      </trkpt>
      <trkpt lat="48.60493" lon="1.96567">
        <ele>146</ele>
        <time>2022-01-12T10:45:59Z</time>
      </trkpt>
      <trkpt lat="48.60746" lon="1.96822">
        <ele>120</ele>
        <time>2022-01-12T10:50:03Z</time>
      </trkpt>
      <trkpt lat="48.60695" lon="1.97092">
        <ele>118</ele>
        <time>2022-01-12T10:52:31Z</time>
      </trkpt>
      <trkpt lat="48.60398" lon="1.96795">
        <ele>145</ele>
        <time>2022-01-12T10:57:16Z</time>
      </trkpt>
      <trkpt lat="48.60254" lon="1.97113">
        <ele>127</ele>
        <time>2022-01-12T11:00:40Z</time>
      </trkpt>
      <trkpt lat="48.60123" lon="1.97071">
        <ele>139</ele>
        <time>2022-01-12T11:02:28Z</time>
      </trkpt>
      <trkpt lat="48.59957" lon="1.9715">
        <ele>140</ele>
        <time>2022-01-12T11:04:47Z</time>
      </trkpt>
      <trkpt lat="48.60537" lon="1.97729">
        <ele>112</ele>
        <time>2022-01-12T11:14:03Z</time>
      </trkpt>
      <trkpt lat="48.60344" lon="1.98154">
        <ele>110</ele>
        <time>2022-01-12T11:18:36Z</time>
      </trkpt>
      <trkpt lat="48.6039" lon="1.98203">
        <ele>108</ele>
        <time>2022-01-12T11:19:21Z</time>
      </trkpt>
      <trkpt lat="48.60314" lon="1.98285">
        <ele>113</ele>
        <time>2022-01-12T11:20:36Z</time>
      </trkpt>
      <trkpt lat="48.6025" lon="1.98315">
        <ele>117</ele>
        <time>2022-01-12T11:21:30Z</time>
      </trkpt>
      <trkpt lat="48.602" lon="1.98358">
        <ele>117</ele>
        <time>2022-01-12T11:22:16Z</time>
      </trkpt>
      <trkpt lat="48.60128" lon="1.98373">
        <ele>123</ele>
        <time>2022-01-12T11:23:14Z</time>
      </trkpt>
      <trkpt lat="48.60049" lon="1.98457">
        <ele>123</ele>
        <time>2022-01-12T11:24:31Z</time>
      </trkpt>
      <trkpt lat="48.60157" lon="1.98641">
        <ele>115</ele>
        <time>2022-01-12T11:26:42Z</time>
      </trkpt>
      <trkpt lat="48.6007" lon="1.98763">
        <ele>114</ele>
        <time>2022-01-12T11:28:17Z</time>
      </trkpt>
      <trkpt lat="48.59563" lon="1.98809">
        <ele>128</ele>
        <time>2022-01-12T11:35:03Z</time>
      </trkpt>
      <trkpt lat="48.59708" lon="1.98636">
        <ele>141</ele>
        <time>2022-01-12T11:37:31Z</time>
      </trkpt>
      <trkpt lat="48.59675" lon="1.98416">
        <ele>148</ele>
        <time>2022-01-12T11:39:31Z</time>
      </trkpt>
      <trkpt lat="48.59607" lon="1.98233">
        <ele>154</ele>
        <time>2022-01-12T11:41:22Z</time>
      </trkpt>
      <trkpt lat="48.59523" lon="1.98018">
        <ele>162</ele>
        <time>2022-01-12T11:43:34Z</time>
      </trkpt>
      <trkpt lat="48.59428" lon="1.97722">
        <ele>157</ele>
        <time>2022-01-12T11:46:28Z</time>
      </trkpt>
      <trkpt lat="48.59435" lon="1.97646">
        <ele>152</ele>
        <time>2022-01-12T11:47:09Z</time>
      </trkpt>
      <trkpt lat="48.59486" lon="1.97487">
        <ele>142</ele>
        <time>2022-01-12T11:48:43Z</time>
      </trkpt>
      <trkpt lat="48.59395" lon="1.97421">
        <ele>138</ele>
        <time>2022-01-12T11:50:03Z</time>
      </trkpt>
      <trkpt lat="48.59229" lon="1.97436">
        <ele>130</ele>
        <time>2022-01-12T11:52:17Z</time>
      </trkpt>
      <trkpt lat="48.59114" lon="1.97324">
        <ele>125</ele>
        <time>2022-01-12T11:54:06Z</time>
      </trkpt>
      <trkpt lat="48.59385" lon="1.96734">
        <ele>142</ele>
        <time>2022-01-12T12:00:26Z</time>
      </trkpt>
      <trkpt lat="48.59395" lon="1.96694">
        <ele>142</ele>
        <time>2022-01-12T12:00:49Z</time>
      </trkpt>
      <trkpt lat="48.59305" lon="1.96659">
        <ele>132</ele>
        <time>2022-01-12T12:02:04Z</time>
      </trkpt>
      <trkpt lat="48.59222" lon="1.96596">
        <ele>124</ele>
        <time>2022-01-12T12:03:18Z</time>
      </trkpt>
      <trkpt lat="48.59182" lon="1.96602">
        <ele>122</ele>
        <time>2022-01-12T12:03:50Z</time>
      </trkpt>
    </trkseg>
  </trk>
</gpx>